Time;durP1;ratioP1;P1;durP2;ratioP2;P2;SDS_P1;SDS_P2;PMS_P1;PMS_P2;Temp;Humidity;BMP_temperature;BMP_pressure;BME280_temperature;BME280_humidity;BME280_pressure;Samples;Min_cycle;Max_cycle;Signal;HPM_P1;HPM_P2
2022/05/18 00:00:35;;;;;;;18.75;17.35;;;16.40;99.90;;;;;;4990793;28;20502;-76
2022/05/18 00:03:06;;;;;;;18.45;17.27;;;16.40;99.90;;;;;;4991535;28;20054;-77
2022/05/18 00:05:35;;;;;;;18.63;17.42;;;16.40;99.90;;;;;;4990284;28;20146;-77
2022/05/18 00:08:02;;;;;;;19.40;18.08;;;16.50;99.90;;;;;;4989657;28;20470;-77
2022/05/18 00:10:29;;;;;;;19.15;17.35;;;16.50;99.90;;;;;;4989110;28;20553;-77
2022/05/18 00:12:56;;;;;;;17.50;16.25;;;16.50;99.90;;;;;;4996180;28;20057;-77
2022/05/18 00:15:25;;;;;;;16.80;15.88;;;16.60;99.90;;;;;;4997118;28;20049;-77
2022/05/18 00:17:52;;;;;;;18.38;16.95;;;16.60;99.90;;;;;;5002315;28;20064;-76
2022/05/18 00:20:20;;;;;;;18.40;17.20;;;16.70;99.90;;;;;;4996344;28;20101;-77
2022/05/18 00:22:52;;;;;;;18.25;17.13;;;16.60;99.90;;;;;;4999795;28;20050;-76
2022/05/18 00:25:23;;;;;;;18.63;17.48;;;16.50;99.90;;;;;;4990354;28;20058;-77
2022/05/18 00:27:51;;;;;;;17.95;16.75;;;16.30;99.90;;;;;;4986936;28;20057;-76
2022/05/18 00:30:20;;;;;;;17.75;16.48;;;16.30;99.90;;;;;;4985319;28;20057;-76
2022/05/18 00:32:47;;;;;;;18.52;17.13;;;16.30;99.90;;;;;;4985521;28;20104;-77
2022/05/18 00:35:15;;;;;;;17.77;16.45;;;16.30;99.90;;;;;;4985535;28;20050;-77
2022/05/18 00:37:42;;;;;;;17.88;16.50;;;16.40;99.90;;;;;;4987881;28;20617;-76
2022/05/18 00:40:11;;;;;;;19.00;17.33;;;16.40;99.90;;;;;;4976864;28;20069;-76
2022/05/18 00:42:38;;;;;;;19.27;17.83;;;16.50;99.90;;;;;;4981353;28;20111;-76
2022/05/18 00:45:06;;;;;;;20.27;18.55;;;16.50;99.90;;;;;;4981974;28;20853;-77
2022/05/18 00:47:33;;;;;;;18.63;17.33;;;16.60;99.90;;;;;;4999716;28;20081;-76
2022/05/18 00:50:04;;;;;;;18.98;17.77;;;16.70;99.90;;;;;;4997348;28;20648;-76
2022/05/18 00:52:42;;;;;;;20.27;18.52;;;16.80;99.90;;;;;;4987044;28;20057;-75
2022/05/18 00:55:14;;;;;;;18.90;17.70;;;16.80;99.90;;;;;;4985283;28;20077;-76
2022/05/18 00:57:51;;;;;;;19.15;17.92;;;16.80;99.90;;;;;;4987506;28;20104;-76
2022/05/18 01:00:20;;;;;;;20.40;18.92;;;16.80;99.90;;;;;;4964333;28;20058;-76
2022/05/18 01:02:54;;;;;;;19.17;17.98;;;16.80;99.90;;;;;;4966455;28;20113;-77
2022/05/18 01:05:29;;;;;;;18.70;17.30;;;16.80;99.90;;;;;;4981810;28;20109;-77
2022/05/18 01:07:58;;;;;;;18.45;16.98;;;16.70;99.90;;;;;;4968374;28;20073;-76
2022/05/18 01:10:28;;;;;;;18.42;16.98;;;16.70;99.90;;;;;;4966061;28;20054;-76
2022/05/18 01:12:56;;;;;;;18.48;17.38;;;16.60;99.90;;;;;;4987065;28;20061;-76
2022/05/18 01:15:24;;;;;;;18.63;17.05;;;16.60;99.90;;;;;;4981185;28;20042;-77
2022/05/18 01:17:54;;;;;;;18.75;17.30;;;16.50;99.90;;;;;;5004801;28;20056;-77
2022/05/18 01:20:28;;;;;;;18.10;16.80;;;16.50;99.90;;;;;;5002277;28;20694;-76
2022/05/18 01:23:27;;;;;;;18.13;16.85;;;16.40;99.90;;;;;;4981793;28;20121;-76
2022/05/18 01:26:10;;;;;;;17.77;16.45;;;16.40;99.90;;;;;;4972551;28;20054;-76
2022/05/18 01:28:41;;;;;;;18.25;17.00;;;16.40;99.90;;;;;;4989593;28;20058;-77
2022/05/18 01:31:08;;;;;;;19.27;17.60;;;16.40;99.90;;;;;;4983604;28;20104;-76
2022/05/18 01:33:36;;;;;;;19.20;17.80;;;16.40;99.90;;;;;;4983748;28;20113;-75
2022/05/18 01:36:04;;;;;;;19.15;17.58;;;16.40;99.90;;;;;;4980860;28;20054;-76
2022/05/18 01:38:32;;;;;;;18.42;17.25;;;16.50;99.90;;;;;;4985103;28;20470;-77
2022/05/18 01:41:04;;;;;;;18.88;17.48;;;16.50;99.90;;;;;;4985793;28;20544;-75
2022/05/18 01:43:40;;;;;;;18.65;17.20;;;16.60;99.90;;;;;;4992291;28;20050;-75
2022/05/18 01:46:10;;;;;;;18.05;16.90;;;16.60;99.90;;;;;;4995098;28;20054;-76
2022/05/18 01:48:40;;;;;;;19.00;17.70;;;16.60;99.90;;;;;;5001167;28;20382;-77
2022/05/18 01:51:11;;;;;;;19.02;17.65;;;16.60;99.90;;;;;;4994734;28;20241;-75
2022/05/18 01:53:38;;;;;;;18.80;17.52;;;16.60;99.90;;;;;;4966136;28;20046;-76
2022/05/18 01:56:04;;;;;;;20.48;18.67;;;16.60;99.90;;;;;;4966485;28;20046;-77
2022/05/18 01:58:31;;;;;;;19.88;18.30;;;16.60;99.90;;;;;;4966648;28;20046;-76
2022/05/18 02:01:02;;;;;;;19.25;17.92;;;16.60;99.90;;;;;;4965020;28;20051;-76
2022/05/18 02:03:29;;;;;;;19.92;18.33;;;16.60;99.90;;;;;;4966172;28;20058;-77
2022/05/18 02:05:56;;;;;;;19.73;18.40;;;16.50;99.90;;;;;;4964955;28;20061;-77
2022/05/18 02:08:23;;;;;;;19.60;18.35;;;16.50;99.90;;;;;;4997005;28;20046;-76
2022/05/18 02:10:50;;;;;;;19.05;17.75;;;16.50;99.90;;;;;;4964667;28;20105;-75
2022/05/18 02:13:17;;;;;;;19.98;18.40;;;16.40;99.90;;;;;;4982558;28;20050;-76
2022/05/18 02:15:44;;;;;;;20.25;18.48;;;16.40;99.90;;;;;;4996537;28;20030;-77
2022/05/18 02:18:11;;;;;;;20.50;18.73;;;16.40;99.90;;;;;;5001413;28;20441;-77
2022/05/18 02:20:38;;;;;;;20.50;18.80;;;16.20;99.90;;;;;;4994949;28;20191;-76
2022/05/18 02:23:08;;;;;;;20.52;18.77;;;16.30;99.90;;;;;;4994815;28;20038;-76
2022/05/18 02:25:37;;;;;;;19.65;18.35;;;16.10;99.90;;;;;;4983593;28;20097;-77
2022/05/18 02:28:05;;;;;;;20.85;18.75;;;16.20;99.90;;;;;;4984762;28;20132;-76
2022/05/18 02:30:32;;;;;;;19.35;17.75;;;16.10;99.90;;;;;;4984484;28;20096;-75
2022/05/18 02:32:59;;;;;;;20.02;18.15;;;16.20;99.90;;;;;;4982342;28;20046;-76
2022/05/18 02:35:26;;;;;;;20.23;18.08;;;16.10;99.90;;;;;;4984824;28;20594;-77
2022/05/18 02:37:53;;;;;;;18.98;17.25;;;16.00;99.90;;;;;;4983930;28;20530;-75
2022/05/18 02:40:20;;;;;;;20.10;17.90;;;16.00;99.90;;;;;;4984188;28;20050;-75
2022/05/18 02:42:46;;;;;;;19.70;17.83;;;15.90;99.90;;;;;;4990941;28;20214;-76
2022/05/18 02:45:13;;;;;;;18.92;17.48;;;15.80;99.90;;;;;;4997366;28;20069;-76
2022/05/18 02:47:40;;;;;;;20.90;18.90;;;15.80;99.90;;;;;;4990232;28;20110;-77
2022/05/18 02:50:08;;;;;;;20.23;18.00;;;15.70;99.90;;;;;;4991123;28;20489;-77
2022/05/18 02:52:37;;;;;;;20.20;18.42;;;15.60;99.90;;;;;;4986104;28;20050;-76
2022/05/18 02:57:51;;;;;;;19.50;17.50;;;15.50;99.90;;;;;;4983839;28;20482;-77
2022/05/18 03:00:18;;;;;;;20.00;17.98;;;15.50;99.90;;;;;;4982766;28;20104;-76
2022/05/18 03:02:44;;;;;;;19.05;17.45;;;15.50;99.90;;;;;;4982955;28;20050;-76
2022/05/18 03:05:12;;;;;;;17.55;15.85;;;15.40;99.90;;;;;;4981060;28;20438;-76
2022/05/18 03:07:39;;;;;;;19.35;16.63;;;15.30;99.90;;;;;;4982037;28;20050;-77
2022/05/18 03:10:06;;;;;;;18.25;16.40;;;15.40;99.90;;;;;;4980130;28;20081;-77
2022/05/18 03:12:33;;;;;;;18.52;16.98;;;15.40;99.90;;;;;;4988932;28;20041;-76
2022/05/18 03:15:00;;;;;;;20.00;18.35;;;15.60;99.90;;;;;;4975849;28;20041;-76
2022/05/18 03:17:27;;;;;;;19.15;17.48;;;15.60;99.90;;;;;;4991745;28;20049;-75
2022/05/18 03:19:54;;;;;;;18.50;16.77;;;15.60;99.90;;;;;;4996038;28;20042;-77
2022/05/18 03:25:06;;;;;;;20.25;17.77;;;15.60;99.90;;;;;;4992095;28;20113;-76
2022/05/18 03:27:33;;;;;;;19.70;17.77;;;15.70;99.90;;;;;;4987774;28;20050;-76
2022/05/18 03:29:59;;;;;;;18.67;17.30;;;15.70;99.90;;;;;;4985139;28;20072;-74
2022/05/18 03:32:26;;;;;;;19.10;17.45;;;15.80;99.90;;;;;;5003055;28;20100;-74
2022/05/18 03:34:53;;;;;;;21.23;19.45;;;15.90;99.90;;;;;;4985570;28;20653;-76
2022/05/18 03:37:20;;;;;;;21.50;19.15;;;15.90;99.90;;;;;;4993676;28;20050;-77
2022/05/18 03:39:46;;;;;;;20.13;18.08;;;15.80;99.90;;;;;;4984649;28;20050;-77
2022/05/18 03:42:13;;;;;;;20.05;17.95;;;16.00;99.90;;;;;;4977480;28;20430;-77
2022/05/18 03:44:40;;;;;;;20.30;18.67;;;15.90;99.90;;;;;;4994543;28;20065;-77
2022/05/18 03:47:07;;;;;;;20.80;18.92;;;15.90;99.90;;;;;;4994160;28;20050;-74
2022/05/18 03:49:35;;;;;;;20.65;18.85;;;15.80;99.90;;;;;;5000218;28;20054;-75
2022/05/18 03:52:03;;;;;;;19.70;18.08;;;15.80;99.90;;;;;;4982265;28;20112;-77
2022/05/18 03:54:35;;;;;;;20.30;18.55;;;15.80;99.90;;;;;;4983540;28;20523;-77
2022/05/18 03:57:02;;;;;;;20.50;18.70;;;15.80;99.90;;;;;;4982052;28;20461;-75
2022/05/18 03:59:29;;;;;;;21.98;19.70;;;15.80;99.90;;;;;;4983090;28;20120;-75
2022/05/18 04:01:56;;;;;;;21.00;19.23;;;15.90;99.90;;;;;;4993542;28;20714;-76
2022/05/18 04:04:22;;;;;;;20.50;18.85;;;15.90;99.90;;;;;;4999523;28;20132;-77
2022/05/18 04:06:50;;;;;;;20.17;18.45;;;15.80;99.90;;;;;;4996763;28;20137;-76
2022/05/18 04:09:17;;;;;;;22.08;20.08;;;15.80;99.90;;;;;;4981960;28;20065;-75
2022/05/18 04:11:44;;;;;;;20.98;19.38;;;15.90;99.90;;;;;;4984221;28;20527;-75
2022/05/18 04:14:10;;;;;;;20.77;18.83;;;15.90;99.90;;;;;;5000351;28;20462;-76
2022/05/18 04:16:37;;;;;;;20.63;19.13;;;16.00;99.90;;;;;;4986578;28;20069;-78
2022/05/18 04:19:04;;;;;;;23.98;21.58;;;16.00;99.90;;;;;;4999090;28;20782;-76
2022/05/18 04:21:31;;;;;;;20.90;19.40;;;16.00;99.90;;;;;;5004470;28;20049;-76
2022/05/18 04:23:58;;;;;;;21.67;19.98;;;16.00;99.90;;;;;;4982893;28;20054;-76
2022/05/18 04:26:24;;;;;;;20.27;18.75;;;15.90;99.90;;;;;;4983413;28;20085;-75
2022/05/18 04:28:51;;;;;;;21.02;19.30;;;15.90;99.90;;;;;;4984820;28;20450;-76
2022/05/18 04:31:18;;;;;;;20.63;19.05;;;16.00;99.90;;;;;;4991809;28;20047;-73
2022/05/18 04:33:45;;;;;;;20.48;18.67;;;16.00;99.90;;;;;;4999223;28;20054;-75
2022/05/18 04:36:11;;;;;;;20.58;18.58;;;16.10;99.90;;;;;;5004713;28;20050;-74
2022/05/18 04:38:38;;;;;;;22.17;19.98;;;16.10;99.90;;;;;;4987930;28;20132;-74
2022/05/18 04:41:05;;;;;;;20.67;19.05;;;16.20;99.90;;;;;;4985515;28;20046;-76
2022/05/18 04:43:32;;;;;;;21.10;19.38;;;16.20;99.90;;;;;;4996433;28;20112;-77
2022/05/18 04:46:00;;;;;;;21.42;19.55;;;16.30;99.90;;;;;;4995728;28;20050;-76
2022/05/18 04:48:30;;;;;;;21.63;19.85;;;16.40;99.90;;;;;;4972636;28;20042;-76
2022/05/18 04:50:57;;;;;;;21.52;19.92;;;16.40;99.90;;;;;;4999114;28;20579;-75
2022/05/18 04:53:24;;;;;;;21.67;19.73;;;16.50;99.90;;;;;;4984453;28;20050;-75
2022/05/18 04:55:51;;;;;;;22.42;20.20;;;16.70;99.90;;;;;;4984724;28;20513;-75
2022/05/18 04:58:18;;;;;;;21.63;19.98;;;16.70;99.90;;;;;;4983025;28;20491;-76
2022/05/18 05:00:51;;;;;;;22.80;21.20;;;16.90;99.90;;;;;;4990523;28;20046;-75
2022/05/18 05:03:18;;;;;;;23.40;21.60;;;17.10;99.90;;;;;;4995482;28;20077;-75
2022/05/18 05:05:50;;;;;;;22.13;20.70;;;17.40;99.90;;;;;;4979634;28;20050;-76
2022/05/18 05:08:17;;;;;;;23.08;21.45;;;17.60;99.90;;;;;;4983443;28;20062;-75
2022/05/18 05:10:43;;;;;;;24.52;22.58;;;17.90;99.90;;;;;;4982803;28;20098;-73
2022/05/18 05:13:10;;;;;;;24.73;22.63;;;18.10;99.90;;;;;;4990259;28;20155;-75
2022/05/18 05:15:37;;;;;;;26.38;24.27;;;18.20;99.90;;;;;;4994758;28;20046;-74
2022/05/18 05:18:04;;;;;;;25.33;23.35;;;18.30;99.90;;;;;;4998147;28;20061;-73
2022/05/18 05:20:31;;;;;;;25.35;23.42;;;18.50;99.90;;;;;;4984936;28;20038;-75
2022/05/18 05:22:58;;;;;;;24.83;23.13;;;18.70;99.90;;;;;;4982789;28;20058;-73
2022/05/18 05:25:25;;;;;;;26.88;24.38;;;18.90;99.90;;;;;;4983858;28;20050;-75
2022/05/18 05:27:52;;;;;;;25.27;23.42;;;19.20;99.90;;;;;;4985446;28;20132;-74
2022/05/18 05:30:19;;;;;;;25.15;23.38;;;19.20;99.90;;;;;;4985462;28;20045;-76
2022/05/18 05:32:45;;;;;;;26.58;24.25;;;19.40;99.90;;;;;;5000095;28;20686;-78
2022/05/18 05:35:13;;;;;;;25.48;23.40;;;19.40;99.90;;;;;;5004605;28;20104;-75
2022/05/18 05:37:40;;;;;;;25.10;23.40;;;19.40;99.90;;;;;;5006970;28;20058;-74
2022/05/18 05:40:07;;;;;;;25.05;22.95;;;19.20;99.90;;;;;;4992657;28;20121;-74
2022/05/18 05:42:37;;;;;;;25.98;23.83;;;19.10;99.90;;;;;;4989510;28;20603;-75
2022/05/18 05:45:04;;;;;;;26.15;24.10;;;19.20;99.90;;;;;;4990651;28;20076;-76
2022/05/18 05:47:31;;;;;;;26.00;24.30;;;19.20;99.90;;;;;;4990686;28;20138;-76
2022/05/18 05:49:58;;;;;;;25.77;23.77;;;19.40;99.90;;;;;;4969072;28;20050;-76
2022/05/18 05:52:25;;;;;;;25.92;24.00;;;19.20;99.90;;;;;;4965507;28;20405;-76
2022/05/18 05:54:51;;;;;;;26.17;24.27;;;19.50;99.90;;;;;;4984238;28;20076;-74
2022/05/18 05:57:18;;;;;;;25.83;23.88;;;19.50;99.90;;;;;;4972533;28;20043;-76
2022/05/18 05:59:45;;;;;;;26.38;24.17;;;19.70;99.90;;;;;;4986939;28;20058;-74
2022/05/18 06:02:15;;;;;;;26.23;24.20;;;19.60;99.90;;;;;;4988169;28;20038;-76
2022/05/18 06:04:43;;;;;;;27.13;25.02;;;19.80;99.90;;;;;;4982688;28;20058;-75
2022/05/18 06:07:10;;;;;;;25.65;23.85;;;19.90;99.90;;;;;;4966792;28;20092;-75
2022/05/18 06:09:37;;;;;;;25.98;23.98;;;20.10;99.90;;;;;;4980650;28;20042;-75
2022/05/18 06:12:04;;;;;;;26.55;24.42;;;19.80;99.90;;;;;;4986153;28;20135;-74
2022/05/18 06:14:31;;;;;;;25.60;23.70;;;19.80;99.90;;;;;;4995193;28;20053;-77
2022/05/18 06:16:58;;;;;;;24.63;22.92;;;20.00;99.90;;;;;;4992729;28;20371;-75
2022/05/18 06:19:25;;;;;;;25.45;23.65;;;20.30;99.90;;;;;;5003181;28;20058;-75
2022/05/18 06:21:52;;;;;;;24.88;23.35;;;20.60;99.90;;;;;;5002894;28;20334;-73
2022/05/18 06:24:19;;;;;;;27.00;25.35;;;20.60;99.90;;;;;;4994236;28;20050;-75
2022/05/18 06:26:46;;;;;;;26.83;24.85;;;20.70;99.90;;;;;;4984827;28;20050;-77
2022/05/18 06:29:13;;;;;;;26.25;24.45;;;20.60;99.90;;;;;;4985430;28;20057;-77
2022/05/18 06:31:40;;;;;;;26.60;24.73;;;20.50;99.90;;;;;;4989783;28;20534;-75
2022/05/18 06:34:07;;;;;;;27.02;25.23;;;20.60;99.90;;;;;;4995403;28;20046;-75
2022/05/18 06:36:34;;;;;;;26.65;24.25;;;20.60;99.90;;;;;;4963339;28;20050;-76
2022/05/18 06:39:03;;;;;;;26.50;24.42;;;20.60;99.90;;;;;;4963722;28;20314;-76
2022/05/18 06:41:34;;;;;;;25.17;23.52;;;20.50;99.90;;;;;;4962473;28;20129;-73
2022/05/18 06:44:04;;;;;;;27.10;25.02;;;20.60;99.90;;;;;;4995128;28;20478;-74
2022/05/18 06:46:33;;;;;;;26.15;24.10;;;20.60;99.90;;;;;;5007813;28;20038;-74
2022/05/18 06:49:01;;;;;;;25.85;23.83;;;20.60;99.90;;;;;;5004217;28;20269;-75
2022/05/18 06:51:31;;;;;;;24.42;22.73;;;20.30;99.90;;;;;;4988097;28;20046;-76
2022/05/18 06:53:58;;;;;;;25.30;23.48;;;20.50;99.90;;;;;;5010457;22;20384;-72
2022/05/18 06:56:28;;;;;;;25.48;23.63;;;20.70;99.90;;;;;;4998552;28;20038;-72
2022/05/18 06:58:55;;;;;;;27.42;25.30;;;20.60;99.90;;;;;;5022287;28;20535;-72
2022/05/18 07:01:23;;;;;;;28.73;26.25;;;20.70;99.90;;;;;;5030890;28;20052;-72
2022/05/18 07:03:50;;;;;;;26.95;25.10;;;20.80;99.90;;;;;;5039069;28;20060;-72
2022/05/18 07:06:26;;;;;;;26.92;25.13;;;20.60;99.90;;;;;;5011271;28;20064;-72
2022/05/18 07:08:57;;;;;;;29.58;27.55;;;20.80;99.90;;;;;;5009881;23;20073;-70
2022/05/18 07:11:25;;;;;;;28.63;26.90;;;21.10;99.90;;;;;;4974729;28;20053;-69
2022/05/18 07:13:54;;;;;;;28.50;26.60;;;21.30;99.90;;;;;;4987598;28;20086;-69
2022/05/18 07:16:22;;;;;;;27.45;25.50;;;21.50;99.90;;;;;;4994785;28;20049;-70
2022/05/18 07:18:49;;;;;;;27.02;25.27;;;22.00;99.90;;;;;;4995641;28;20129;-70
2022/05/18 07:21:16;;;;;;;27.35;25.45;;;22.00;99.90;;;;;;4997779;28;20056;-68
2022/05/18 07:23:43;;;;;;;27.77;25.88;;;21.90;99.90;;;;;;4997964;28;20054;-71
2022/05/18 07:26:11;;;;;;;28.23;26.35;;;21.80;99.90;;;;;;4994746;28;20042;-69
2022/05/18 07:28:39;;;;;;;30.30;27.98;;;21.80;99.90;;;;;;4997706;28;20054;-70
2022/05/18 07:31:07;;;;;;;28.48;26.52;;;21.80;99.90;;;;;;5005493;28;20073;-69
2022/05/18 07:33:39;;;;;;;30.02;28.05;;;21.90;99.90;;;;;;5012736;28;20552;-71
2022/05/18 07:36:06;;;;;;;28.05;26.15;;;21.80;99.90;;;;;;4996951;28;20049;-70
2022/05/18 07:38:34;;;;;;;28.25;26.35;;;21.50;99.90;;;;;;4996801;28;20062;-70
2022/05/18 07:41:05;;;;;;;28.83;26.67;;;21.20;99.90;;;;;;4998886;28;20565;-70
2022/05/18 07:43:32;;;;;;;27.05;25.33;;;21.00;99.90;;;;;;5002741;28;20764;-69
2022/05/18 07:45:59;;;;;;;26.90;25.30;;;21.40;99.90;;;;;;4999550;28;20041;-70
2022/05/18 07:48:27;;;;;;;27.40;25.48;;;21.50;99.90;;;;;;4998748;28;20310;-70
2022/05/18 07:50:54;;;;;;;26.75;25.05;;;21.50;99.90;;;;;;4999973;28;20273;-69
2022/05/18 07:53:21;;;;;;;26.73;24.95;;;21.50;99.90;;;;;;4999952;28;20131;-70
2022/05/18 07:55:48;;;;;;;27.27;25.48;;;21.50;99.90;;;;;;4990224;28;20332;-69
2022/05/18 07:58:17;;;;;;;27.75;25.90;;;21.50;99.90;;;;;;4995417;28;20057;-72
2022/05/18 08:00:44;;;;;;;25.98;24.38;;;21.70;99.90;;;;;;5005656;28;20053;-69
2022/05/18 08:03:12;;;;;;;27.15;25.45;;;21.90;99.90;;;;;;5011194;28;20104;-70
2022/05/18 08:05:42;;;;;;;26.55;24.92;;;22.00;99.90;;;;;;4997071;28;20341;-69
2022/05/18 08:08:12;;;;;;;26.40;24.65;;;22.20;99.90;;;;;;4997979;28;20522;-71
2022/05/18 08:16:13;;;;;;;25.70;24.13;;;23.40;99.90;;;;;;5009363;28;20050;-70
2022/05/18 08:18:40;;;;;;;26.48;24.58;;;23.60;99.90;;;;;;4999274;28;20099;-71
2022/05/18 08:21:07;;;;;;;26.05;24.45;;;24.00;99.90;;;;;;4999686;28;20591;-70
2022/05/18 08:23:34;;;;;;;25.13;23.52;;;24.10;99.90;;;;;;4997755;28;20057;-70
2022/05/18 08:26:02;;;;;;;25.13;23.70;;;24.50;99.90;;;;;;4997879;28;20060;-70
2022/05/18 08:28:30;;;;;;;25.48;23.88;;;24.90;99.90;;;;;;4998699;28;20057;-72
2022/05/18 08:30:57;;;;;;;26.35;24.67;;;25.30;99.90;;;;;;5007186;28;20050;-72
2022/05/18 08:33:24;;;;;;;27.15;25.02;;;25.00;99.90;;;;;;5017923;28;20103;-71
2022/05/18 08:35:51;;;;;;;26.17;24.27;;;25.10;99.90;;;;;;5017975;28;20050;-73
2022/05/18 08:38:19;;;;;;;25.25;23.35;;;25.30;99.90;;;;;;5019124;28;20050;-71
2022/05/18 08:41:17;;;;;;;25.67;24.13;;;25.20;99.90;;;;;;4998400;28;20061;-71
2022/05/18 08:43:48;;;;;;;26.08;24.33;;;25.10;99.90;;;;;;5015857;28;20057;-70
2022/05/18 08:46:35;;;;;;;24.45;22.77;;;25.30;99.90;;;;;;4996291;28;20319;-71
2022/05/18 08:49:20;;;;;;;24.30;22.65;;;25.50;99.90;;;;;;4991255;28;20146;-70
2022/05/18 08:52:03;;;;;;;24.55;23.05;;;25.40;99.90;;;;;;4995423;28;20119;-70
2022/05/18 08:55:04;;;;;;;25.48;23.70;;;24.80;99.90;;;;;;4995648;28;20065;-72
2022/05/18 08:57:40;;;;;;;25.83;23.70;;;24.60;99.90;;;;;;4997264;28;20112;-71
2022/05/18 09:00:14;;;;;;;25.85;24.42;;;24.50;99.90;;;;;;5001472;28;20529;-71
2022/05/18 09:02:42;;;;;;;26.00;24.33;;;24.60;99.90;;;;;;5017372;28;20061;-72
2022/05/18 09:05:16;;;;;;;26.15;24.42;;;24.70;99.90;;;;;;5018021;28;20502;-71
2022/05/18 09:08:31;;;;;;;26.90;25.15;;;25.00;99.90;;;;;;5018613;28;20518;-71
2022/05/18 09:11:08;;;;;;;25.90;23.88;;;25.40;99.90;;;;;;5018299;28;20053;-71
2022/05/18 09:13:38;;;;;;;25.70;23.85;;;25.90;99.90;;;;;;5003035;28;20810;-72
2022/05/18 09:16:24;;;;;;;25.50;24.00;;;26.10;99.90;;;;;;4997238;28;20054;-70
2022/05/18 09:19:02;;;;;;;25.40;23.70;;;26.20;99.90;;;;;;5011174;28;20149;-71
2022/05/18 09:21:53;;;;;;;25.65;23.92;;;26.50;99.90;;;;;;5018565;28;20306;-72
2022/05/18 09:24:27;;;;;;;26.15;24.02;;;26.90;99.90;;;;;;5011622;28;20050;-71
2022/05/18 09:27:14;;;;;;;26.50;24.90;;;27.10;99.90;;;;;;5011251;28;20042;-72
2022/05/18 09:29:54;;;;;;;25.30;23.90;;;26.80;99.90;;;;;;4999892;28;20046;-72
2022/05/18 09:32:53;;;;;;;26.38;24.63;;;26.90;99.90;;;;;;5012545;28;20056;-73
2022/05/18 09:35:35;;;;;;;27.63;25.73;;;26.80;99.90;;;;;;5016788;28;20091;-72
2022/05/18 09:38:08;;;;;;;27.30;25.52;;;26.60;99.90;;;;;;5017372;28;20056;-72
2022/05/18 09:40:47;;;;;;;25.17;23.63;;;27.00;99.90;;;;;;5016398;28;20041;-73
2022/05/18 09:43:37;;;;;;;24.45;23.05;;;27.20;99.90;;;;;;5000256;28;20050;-71
2022/05/18 09:46:04;;;;;;;24.23;22.77;;;27.60;99.90;;;;;;4994929;28;20137;-71
2022/05/18 09:48:43;;;;;;;24.25;22.55;;;27.50;99.90;;;;;;4996515;28;20042;-71
2022/05/18 09:51:10;;;;;;;24.95;23.35;;;27.30;99.90;;;;;;4996367;28;20120;-71
2022/05/18 09:53:40;;;;;;;25.23;23.63;;;26.80;99.90;;;;;;4994035;28;20493;-70
2022/05/18 09:56:17;;;;;;;25.52;24.02;;;26.70;99.90;;;;;;5012533;28;20569;-72
2022/05/18 09:58:47;;;;;;;25.23;23.83;;;26.60;99.90;;;;;;4998898;28;20062;-71
2022/05/18 10:10:19;;;;;;;24.25;22.65;;;26.30;99.90;;;;;;4998449;28;20062;-73
2022/05/18 10:12:58;;;;;;;26.27;24.55;;;26.60;99.90;;;;;;4984436;28;20050;-73
2022/05/18 10:15:24;;;;;;;23.73;22.17;;;26.70;99.90;;;;;;4996429;28;20069;-72
2022/05/18 10:17:58;;;;;;;24.17;22.77;;;27.00;99.90;;;;;;4998407;28;20042;-71
2022/05/18 10:20:29;;;;;;;25.00;23.40;;;26.80;99.90;;;;;;4978070;28;20077;-71
2022/05/18 10:22:57;;;;;;;25.30;23.42;;;26.60;99.90;;;;;;4995842;28;20054;-71
2022/05/18 10:25:26;;;;;;;25.08;23.33;;;26.40;99.90;;;;;;4995662;28;20537;-71
2022/05/18 10:27:54;;;;;;;21.98;20.48;;;26.50;99.90;;;;;;4986869;28;20089;-73
2022/05/18 10:30:28;;;;;;;24.35;22.70;;;26.30;99.90;;;;;;5002524;28;20049;-72
2022/05/18 10:33:06;;;;;;;27.73;26.00;;;26.10;99.90;;;;;;5013061;28;20131;-72
2022/05/18 10:35:48;;;;;;;26.55;24.88;;;26.10;99.90;;;;;;5017095;28;20339;-73
2022/05/18 10:38:23;;;;;;;25.25;23.63;;;26.60;99.90;;;;;;5016133;28;20464;-72
2022/05/18 10:41:02;;;;;;;;;;;26.80;99.90;;;;;;5017575;28;20048;-70
2022/05/18 10:43:34;;;;;;;26.90;25.40;;;27.00;99.90;;;;;;5003261;28;19932;-72
2022/05/18 10:46:19;;;;;;;25.02;23.48;;;27.30;99.90;;;;;;4991507;28;20052;-71
2022/05/18 10:48:59;;;;;;;26.75;25.25;;;27.20;99.90;;;;;;4996075;28;20057;-70
2022/05/18 10:51:38;;;;;;;26.83;25.15;;;27.60;99.90;;;;;;5012335;28;20494;-71
2022/05/18 10:54:23;;;;;;;25.92;24.10;;;27.80;99.90;;;;;;4997170;28;20057;-72
2022/05/18 10:56:51;;;;;;;26.23;24.63;;;27.60;99.90;;;;;;4995021;28;20053;-73
2022/05/18 10:59:33;;;;;;;28.08;26.23;;;27.60;99.90;;;;;;4989176;28;20132;-73
2022/05/18 11:02:21;;;;;;;27.48;25.77;;;27.70;99.90;;;;;;4993618;28;20442;-72
2022/05/18 11:05:17;;;;;;;28.08;26.05;;;27.80;99.90;;;;;;4996742;28;20149;-71
2022/05/18 11:07:44;;;;;;;26.77;25.15;;;28.20;99.90;;;;;;4982997;28;20541;-73
2022/05/18 11:10:12;;;;;;;27.00;25.30;;;28.50;99.90;;;;;;4994162;28;20078;-73
2022/05/18 11:13:17;;;;;;;26.85;24.98;;;28.50;99.90;;;;;;4997647;28;20541;-72
2022/05/18 11:15:51;;;;;;;27.90;26.05;;;28.30;99.90;;;;;;4996890;28;20433;-73
2022/05/18 11:18:43;;;;;;;26.88;25.38;;;28.40;99.90;;;;;;5001966;28;20069;-71
2022/05/18 11:21:42;;;;;;;28.77;26.92;;;28.70;99.90;;;;;;4994024;28;20046;-71
2022/05/18 11:24:27;;;;;;;27.45;25.85;;;29.00;99.90;;;;;;4993874;28;20034;-72
2022/05/18 11:27:15;;;;;;;28.05;26.35;;;28.80;99.90;;;;;;5009530;28;20549;-71
2022/05/18 11:29:54;;;;;;;29.02;27.13;;;28.70;99.90;;;;;;5000011;28;20060;-73
2022/05/18 11:32:31;;;;;;;29.13;27.33;;;28.30;99.90;;;;;;4983375;28;20715;-72
2022/05/18 11:35:31;;;;;;;28.90;27.10;;;28.70;99.90;;;;;;4995274;28;20331;-70
2022/05/18 11:37:58;;;;;;;28.25;26.55;;;28.50;99.90;;;;;;4998440;28;20046;-73
2022/05/18 11:40:42;;;;;;;29.25;27.38;;;28.70;99.90;;;;;;4989169;28;20102;-71
2022/05/18 11:43:42;;;;;;;28.23;26.63;;;29.10;99.90;;;;;;4996521;28;20327;-72
2022/05/18 11:46:33;;;;;;;28.73;27.13;;;29.40;99.90;;;;;;5007193;28;20076;-70
2022/05/18 11:49:22;;;;;;;28.08;26.45;;;29.30;99.80;;;;;;4993564;28;20054;-71
2022/05/18 11:51:58;;;;;;;29.38;27.63;;;29.00;99.60;;;;;;5020502;28;20084;-72
2022/05/18 11:55:25;;;;;;;29.05;27.30;;;29.20;99.90;;;;;;5020779;28;20056;-72
2022/05/18 11:58:09;;;;;;;29.42;27.52;;;29.30;98.60;;;;;;4933098;29;20043;-70
2022/05/18 12:01:00;;;;;;;28.40;26.80;;;29.50;99.50;;;;;;4996060;28;20050;-72
2022/05/18 12:03:50;;;;;;;28.42;26.83;;;29.40;99.90;;;;;;4999662;28;20061;-73
2022/05/18 12:06:20;;;;;;;29.52;27.52;;;29.30;98.70;;;;;;5001886;28;20053;-73
2022/05/18 12:09:21;;;;;;;28.27;26.55;;;29.20;99.90;;;;;;5000622;28;20053;-73
2022/05/18 12:11:56;;;;;;;28.17;26.63;;;29.20;98.80;;;;;;5001983;28;20077;-73
2022/05/18 12:14:46;;;;;;;27.77;26.10;;;29.50;99.90;;;;;;4998417;28;20080;-72
2022/05/18 12:17:28;;;;;;;29.33;27.45;;;29.60;99.40;;;;;;4998617;28;20077;-71
2022/05/18 12:20:36;;;;;;;27.50;25.80;;;29.60;98.70;;;;;;5002739;28;20092;-71
2022/05/18 12:23:08;;;;;;;28.45;26.70;;;29.40;99.60;;;;;;4994694;28;20046;-72
2022/05/18 12:25:36;;;;;;;28.17;26.50;;;29.30;99.90;;;;;;4996549;28;20046;-71
2022/05/18 12:28:05;;;;;;;28.98;26.95;;;29.00;98.90;;;;;;4999829;28;20045;-70
2022/05/18 12:30:36;;;;;;;27.38;25.75;;;28.90;99.50;;;;;;4998325;28;20663;-71
2022/05/18 12:33:05;;;;;;;26.88;25.38;;;28.70;99.90;;;;;;4999134;28;20057;-69
2022/05/18 12:35:46;;;;;;;27.48;25.77;;;28.80;99.50;;;;;;5014758;28;20641;-72
2022/05/18 12:38:27;;;;;;;29.15;27.33;;;28.80;99.80;;;;;;4999075;28;20049;-70
2022/05/18 12:41:04;;;;;;;28.58;26.88;;;28.40;99.70;;;;;;5003188;28;20046;-70
2022/05/18 12:43:39;;;;;;;27.48;25.85;;;28.50;99.90;;;;;;5017074;28;20057;-72
2022/05/18 12:46:15;;;;;;;28.33;26.58;;;28.80;99.90;;;;;;4998243;28;20046;-71
2022/05/18 12:48:42;;;;;;;27.58;26.05;;;29.20;99.90;;;;;;4997576;28;20068;-71
2022/05/18 12:51:27;;;;;;;27.95;26.35;;;29.10;99.60;;;;;;5005455;28;20506;-72
2022/05/18 12:54:09;;;;;;;28.27;26.35;;;29.00;98.90;;;;;;5019513;28;20558;-73
2022/05/18 12:56:36;;;;;;;29.42;27.58;;;29.00;99.80;;;;;;5019132;28;20048;-73
2022/05/18 12:59:10;;;;;;;27.42;25.60;;;28.90;99.90;;;;;;5011427;28;20049;-71
2022/05/18 13:01:43;;;;;;;26.90;25.23;;;28.80;99.70;;;;;;5000413;28;20045;-72
2022/05/18 13:04:10;;;;;;;26.43;25.00;;;28.40;99.90;;;;;;4998354;28;20065;-72
2022/05/18 13:06:48;;;;;;;28.23;26.65;;;28.30;99.40;;;;;;5005574;28;20288;-71
2022/05/18 13:09:27;;;;;;;30.95;28.85;;;28.10;99.90;;;;;;5018243;22;20496;-78
2022/05/18 13:12:11;;;;;;;30.17;27.95;;;28.20;99.90;;;;;;4984265;28;20041;-78